sensor_id;sensor_type;location;lat;lon;timestamp;P1;durP1;ratioP1;P2;durP2;ratioP2
12812;SDS011;6471;50.932;6.934;2023-05-07T00:02:22;4.37;;;3.80;;
12812;SDS011;6471;50.932;6.934;2023-05-07T00:04:48;6.77;;;4.77;;
12812;SDS011;6471;50.932;6.934;2023-05-07T00:07:15;7.10;;;4.97;;
12812;SDS011;6471;50.932;6.934;2023-05-07T00:09:41;7.90;;;5.30;;
12812;SDS011;6471;50.932;6.934;2023-05-07T00:12:07;6.87;;;4.90;;
12812;SDS011;6471;50.932;6.934;2023-05-07T00:14:33;6.27;;;4.63;;
12812;SDS011;6471;50.932;6.934;2023-05-07T00:16:59;6.77;;;4.77;;
12812;SDS011;6471;50.932;6.934;2023-05-07T00:19:25;6.20;;;4.73;;
12812;SDS011;6471;50.932;6.934;2023-05-07T00:21:51;7.50;;;5.50;;
12812;SDS011;6471;50.932;6.934;2023-05-07T00:24:21;6.67;;;4.57;;
12812;SDS011;6471;50.932;6.934;2023-05-07T00:26:47;5.63;;;4.47;;
12812;SDS011;6471;50.932;6.934;2023-05-07T00:29:13;5.63;;;4.00;;
12812;SDS011;6471;50.932;6.934;2023-05-07T00:31:39;5.13;;;3.87;;
12812;SDS011;6471;50.932;6.934;2023-05-07T00:34:05;3.63;;;3.23;;
12812;SDS011;6471;50.932;6.934;2023-05-07T00:36:32;3.53;;;3.03;;
12812;SDS011;6471;50.932;6.934;2023-05-07T00:38:59;4.13;;;3.00;;
12812;SDS011;6471;50.932;6.934;2023-05-07T00:41:25;4.53;;;3.10;;
12812;SDS011;6471;50.932;6.934;2023-05-07T00:43:52;3.80;;;3.03;;
12812;SDS011;6471;50.932;6.934;2023-05-07T00:46:19;4.30;;;3.50;;
12812;SDS011;6471;50.932;6.934;2023-05-07T00:48:46;4.50;;;3.60;;
12812;SDS011;6471;50.932;6.934;2023-05-07T00:51:12;5.70;;;4.10;;
12812;SDS011;6471;50.932;6.934;2023-05-07T00:53:38;6.73;;;4.60;;
12812;SDS011;6471;50.932;6.934;2023-05-07T00:56:05;8.23;;;5.90;;
12812;SDS011;6471;50.932;6.934;2023-05-07T00:58:32;8.70;;;6.63;;
12812;SDS011;6471;50.932;6.934;2023-05-07T01:00:58;7.73;;;5.80;;
12812;SDS011;6471;50.932;6.934;2023-05-07T01:03:24;11.87;;;7.80;;
12812;SDS011;6471;50.932;6.934;2023-05-07T01:05:50;12.00;;;7.97;;
12812;SDS011;6471;50.932;6.934;2023-05-07T01:08:18;14.10;;;9.20;;
12812;SDS011;6471;50.932;6.934;2023-05-07T01:10:44;10.60;;;7.40;;
12812;SDS011;6471;50.932;6.934;2023-05-07T01:13:11;9.07;;;6.30;;
12812;SDS011;6471;50.932;6.934;2023-05-07T01:15:38;8.67;;;6.17;;
12812;SDS011;6471;50.932;6.934;2023-05-07T01:18:06;8.77;;;5.23;;
12812;SDS011;6471;50.932;6.934;2023-05-07T01:20:32;6.53;;;4.80;;
12812;SDS011;6471;50.932;6.934;2023-05-07T01:22:58;5.33;;;3.90;;
12812;SDS011;6471;50.932;6.934;2023-05-07T01:25:25;5.37;;;4.00;;
12812;SDS011;6471;50.932;6.934;2023-05-07T01:27:52;4.73;;;3.73;;
12812;SDS011;6471;50.932;6.934;2023-05-07T01:30:18;4.40;;;3.23;;
12812;SDS011;6471;50.932;6.934;2023-05-07T01:32:47;4.53;;;3.63;;
12812;SDS011;6471;50.932;6.934;2023-05-07T01:35:15;4.20;;;3.27;;
12812;SDS011;6471;50.932;6.934;2023-05-07T01:37:43;4.27;;;3.30;;
12812;SDS011;6471;50.932;6.934;2023-05-07T01:40:09;4.17;;;3.30;;
12812;SDS011;6471;50.932;6.934;2023-05-07T01:42:35;6.10;;;4.40;;
12812;SDS011;6471;50.932;6.934;2023-05-07T01:45:02;6.50;;;4.37;;
12812;SDS011;6471;50.932;6.934;2023-05-07T01:47:28;7.30;;;4.73;;
12812;SDS011;6471;50.932;6.934;2023-05-07T01:49:54;6.30;;;4.60;;
12812;SDS011;6471;50.932;6.934;2023-05-07T01:52:21;6.20;;;4.37;;
12812;SDS011;6471;50.932;6.934;2023-05-07T01:54:47;6.63;;;4.23;;
12812;SDS011;6471;50.932;6.934;2023-05-07T01:57:13;5.43;;;4.10;;
12812;SDS011;6471;50.932;6.934;2023-05-07T01:59:39;5.03;;;3.70;;
12812;SDS011;6471;50.932;6.934;2023-05-07T02:02:05;4.67;;;3.63;;
12812;SDS011;6471;50.932;6.934;2023-05-07T02:04:31;4.03;;;3.10;;
12812;SDS011;6471;50.932;6.934;2023-05-07T02:06:57;3.27;;;2.70;;
12812;SDS011;6471;50.932;6.934;2023-05-07T02:09:23;3.37;;;2.90;;
12812;SDS011;6471;50.932;6.934;2023-05-07T02:11:49;3.47;;;2.80;;
12812;SDS011;6471;50.932;6.934;2023-05-07T02:14:15;3.47;;;2.70;;
12812;SDS011;6471;50.932;6.934;2023-05-07T02:16:41;3.23;;;2.50;;
12812;SDS011;6471;50.932;6.934;2023-05-07T02:19:08;3.17;;;2.63;;
12812;SDS011;6471;50.932;6.934;2023-05-07T02:21:34;2.30;;;2.10;;
12812;SDS011;6471;50.932;6.934;2023-05-07T02:24:00;2.57;;;2.30;;
12812;SDS011;6471;50.932;6.934;2023-05-07T02:26:26;2.63;;;2.10;;
12812;SDS011;6471;50.932;6.934;2023-05-07T02:28:52;2.80;;;2.50;;
12812;SDS011;6471;50.932;6.934;2023-05-07T02:31:18;3.17;;;2.40;;
12812;SDS011;6471;50.932;6.934;2023-05-07T02:33:45;2.90;;;2.47;;
12812;SDS011;6471;50.932;6.934;2023-05-07T02:36:11;2.43;;;2.00;;
12812;SDS011;6471;50.932;6.934;2023-05-07T02:38:37;2.37;;;2.17;;
12812;SDS011;6471;50.932;6.934;2023-05-07T02:41:03;2.33;;;1.93;;
12812;SDS011;6471;50.932;6.934;2023-05-07T02:43:30;2.60;;;2.00;;
12812;SDS011;6471;50.932;6.934;2023-05-07T02:46:02;2.20;;;2.00;;
12812;SDS011;6471;50.932;6.934;2023-05-07T02:48:29;2.30;;;2.10;;
12812;SDS011;6471;50.932;6.934;2023-05-07T02:50:55;2.20;;;2.00;;
12812;SDS011;6471;50.932;6.934;2023-05-07T02:53:21;2.30;;;2.10;;
12812;SDS011;6471;50.932;6.934;2023-05-07T02:55:47;2.10;;;1.80;;
12812;SDS011;6471;50.932;6.934;2023-05-07T02:58:13;2.37;;;1.80;;
12812;SDS011;6471;50.932;6.934;2023-05-07T03:00:39;2.93;;;2.60;;
12812;SDS011;6471;50.932;6.934;2023-05-07T03:03:05;2.60;;;2.10;;
12812;SDS011;6471;50.932;6.934;2023-05-07T03:05:31;2.60;;;2.40;;
12812;SDS011;6471;50.932;6.934;2023-05-07T03:07:57;2.90;;;2.37;;
12812;SDS011;6471;50.932;6.934;2023-05-07T03:10:23;2.60;;;2.37;;
12812;SDS011;6471;50.932;6.934;2023-05-07T03:12:52;2.30;;;2.10;;
12812;SDS011;6471;50.932;6.934;2023-05-07T03:15:18;2.53;;;2.07;;
12812;SDS011;6471;50.932;6.934;2023-05-07T03:17:45;2.47;;;2.23;;
12812;SDS011;6471;50.932;6.934;2023-05-07T03:20:11;2.23;;;2.00;;
12812;SDS011;6471;50.932;6.934;2023-05-07T03:22:38;2.53;;;2.10;;
12812;SDS011;6471;50.932;6.934;2023-05-07T03:25:04;2.10;;;1.90;;
12812;SDS011;6471;50.932;6.934;2023-05-07T03:27:30;2.53;;;2.20;;
12812;SDS011;6471;50.932;6.934;2023-05-07T03:29:59;2.30;;;2.03;;
12812;SDS011;6471;50.932;6.934;2023-05-07T03:32:25;2.10;;;1.90;;
12812;SDS011;6471;50.932;6.934;2023-05-07T03:34:51;2.20;;;2.00;;
12812;SDS011;6471;50.932;6.934;2023-05-07T03:37:18;2.20;;;2.00;;
12812;SDS011;6471;50.932;6.934;2023-05-07T03:39:44;2.43;;;2.20;;
12812;SDS011;6471;50.932;6.934;2023-05-07T03:42:10;2.53;;;2.10;;
12812;SDS011;6471;50.932;6.934;2023-05-07T03:44:36;2.40;;;2.20;;
12812;SDS011;6471;50.932;6.934;2023-05-07T03:47:02;2.40;;;2.10;;
12812;SDS011;6471;50.932;6.934;2023-05-07T03:49:28;1.90;;;1.67;;
12812;SDS011;6471;50.932;6.934;2023-05-07T03:51:54;2.30;;;1.73;;
12812;SDS011;6471;50.932;6.934;2023-05-07T03:54:21;1.70;;;1.60;;
12812;SDS011;6471;50.932;6.934;2023-05-07T03:56:47;1.80;;;1.70;;
12812;SDS011;6471;50.932;6.934;2023-05-07T03:59:13;2.00;;;1.70;;
12812;SDS011;6471;50.932;6.934;2023-05-07T04:01:39;1.70;;;1.60;;
12812;SDS011;6471;50.932;6.934;2023-05-07T04:04:05;1.67;;;1.50;;
12812;SDS011;6471;50.932;6.934;2023-05-07T04:06:33;2.17;;;1.87;;
12812;SDS011;6471;50.932;6.934;2023-05-07T04:08:59;1.93;;;1.60;;
12812;SDS011;6471;50.932;6.934;2023-05-07T04:11:25;1.57;;;1.47;;
12812;SDS011;6471;50.932;6.934;2023-05-07T04:13:51;1.83;;;1.70;;
12812;SDS011;6471;50.932;6.934;2023-05-07T04:16:17;2.00;;;1.70;;
12812;SDS011;6471;50.932;6.934;2023-05-07T04:18:43;2.30;;;1.87;;
12812;SDS011;6471;50.932;6.934;2023-05-07T04:21:19;1.90;;;1.60;;
12812;SDS011;6471;50.932;6.934;2023-05-07T04:23:49;2.00;;;1.80;;
12812;SDS011;6471;50.932;6.934;2023-05-07T04:26:15;1.77;;;1.60;;
12812;SDS011;6471;50.932;6.934;2023-05-07T04:28:41;2.33;;;1.93;;
12812;SDS011;6471;50.932;6.934;2023-05-07T04:31:07;2.13;;;1.93;;
12812;SDS011;6471;50.932;6.934;2023-05-07T04:33:33;2.17;;;1.97;;
12812;SDS011;6471;50.932;6.934;2023-05-07T04:36:03;2.53;;;1.80;;
12812;SDS011;6471;50.932;6.934;2023-05-07T04:38:29;2.80;;;2.27;;
12812;SDS011;6471;50.932;6.934;2023-05-07T04:40:56;3.93;;;2.60;;
12812;SDS011;6471;50.932;6.934;2023-05-07T04:43:22;2.80;;;2.60;;
12812;SDS011;6471;50.932;6.934;2023-05-07T04:45:51;3.00;;;2.50;;
12812;SDS011;6471;50.932;6.934;2023-05-07T04:48:17;3.70;;;2.60;;
12812;SDS011;6471;50.932;6.934;2023-05-07T04:50:48;4.43;;;2.90;;
12812;SDS011;6471;50.932;6.934;2023-05-07T04:53:14;3.00;;;2.70;;
12812;SDS011;6471;50.932;6.934;2023-05-07T04:55:45;3.37;;;2.53;;
12812;SDS011;6471;50.932;6.934;2023-05-07T04:58:34;4.43;;;2.40;;
12812;SDS011;6471;50.932;6.934;2023-05-07T05:01:01;3.40;;;2.50;;
12812;SDS011;6471;50.932;6.934;2023-05-07T05:03:27;4.00;;;2.40;;
12812;SDS011;6471;50.932;6.934;2023-05-07T05:05:53;3.10;;;2.40;;
12812;SDS011;6471;50.932;6.934;2023-05-07T05:08:19;2.30;;;2.00;;
12812;SDS011;6471;50.932;6.934;2023-05-07T05:10:45;2.20;;;1.80;;
12812;SDS011;6471;50.932;6.934;2023-05-07T05:13:13;2.27;;;2.07;;
12812;SDS011;6471;50.932;6.934;2023-05-07T05:15:39;2.27;;;1.93;;
12812;SDS011;6471;50.932;6.934;2023-05-07T05:18:05;2.00;;;1.80;;
12812;SDS011;6471;50.932;6.934;2023-05-07T05:20:31;2.27;;;1.80;;
12812;SDS011;6471;50.932;6.934;2023-05-07T05:22:58;1.60;;;1.50;;
12812;SDS011;6471;50.932;6.934;2023-05-07T05:25:24;1.77;;;1.60;;
12812;SDS011;6471;50.932;6.934;2023-05-07T05:27:50;1.90;;;1.60;;
12812;SDS011;6471;50.932;6.934;2023-05-07T05:30:16;2.10;;;1.70;;
12812;SDS011;6471;50.932;6.934;2023-05-07T05:32:42;1.90;;;1.70;;
12812;SDS011;6471;50.932;6.934;2023-05-07T05:35:08;2.73;;;1.67;;
12812;SDS011;6471;50.932;6.934;2023-05-07T05:37:34;2.10;;;1.90;;
12812;SDS011;6471;50.932;6.934;2023-05-07T05:40:00;2.20;;;1.70;;
12812;SDS011;6471;50.932;6.934;2023-05-07T05:42:26;1.90;;;1.70;;
12812;SDS011;6471;50.932;6.934;2023-05-07T05:44:52;2.00;;;1.60;;
12812;SDS011;6471;50.932;6.934;2023-05-07T05:47:18;1.83;;;1.60;;
12812;SDS011;6471;50.932;6.934;2023-05-07T05:49:44;1.90;;;1.70;;
12812;SDS011;6471;50.932;6.934;2023-05-07T05:52:11;1.50;;;1.40;;
12812;SDS011;6471;50.932;6.934;2023-05-07T05:54:39;2.80;;;1.77;;
12812;SDS011;6471;50.932;6.934;2023-05-07T05:57:05;1.83;;;1.70;;
12812;SDS011;6471;50.932;6.934;2023-05-07T05:59:31;1.80;;;1.70;;
12812;SDS011;6471;50.932;6.934;2023-05-07T06:01:57;1.70;;;1.60;;
12812;SDS011;6471;50.932;6.934;2023-05-07T06:04:23;1.73;;;1.57;;
12812;SDS011;6471;50.932;6.934;2023-05-07T06:06:49;1.93;;;1.50;;
12812;SDS011;6471;50.932;6.934;2023-05-07T06:09:15;1.83;;;1.53;;
12812;SDS011;6471;50.932;6.934;2023-05-07T06:11:41;1.77;;;1.60;;
12812;SDS011;6471;50.932;6.934;2023-05-07T06:14:07;1.40;;;1.30;;
12812;SDS011;6471;50.932;6.934;2023-05-07T06:16:33;1.77;;;1.50;;
12812;SDS011;6471;50.932;6.934;2023-05-07T06:19:00;1.67;;;1.43;;
12812;SDS011;6471;50.932;6.934;2023-05-07T06:21:26;2.90;;;1.40;;
12812;SDS011;6471;50.932;6.934;2023-05-07T06:23:52;1.90;;;1.50;;
12812;SDS011;6471;50.932;6.934;2023-05-07T06:26:19;1.70;;;1.40;;
12812;SDS011;6471;50.932;6.934;2023-05-07T06:28:46;1.67;;;1.50;;
12812;SDS011;6471;50.932;6.934;2023-05-07T06:33:38;1.90;;;1.50;;
12812;SDS011;6471;50.932;6.934;2023-05-07T06:36:05;1.40;;;1.30;;
12812;SDS011;6471;50.932;6.934;2023-05-07T06:38:31;1.67;;;1.33;;
12812;SDS011;6471;50.932;6.934;2023-05-07T06:40:57;1.70;;;1.40;;
12812;SDS011;6471;50.932;6.934;2023-05-07T06:43:23;1.40;;;1.30;;
12812;SDS011;6471;50.932;6.934;2023-05-07T06:45:49;1.63;;;1.43;;
12812;SDS011;6471;50.932;6.934;2023-05-07T06:48:15;1.70;;;1.47;;
12812;SDS011;6471;50.932;6.934;2023-05-07T06:50:41;1.70;;;1.40;;
12812;SDS011;6471;50.932;6.934;2023-05-07T06:53:07;2.43;;;1.40;;
12812;SDS011;6471;50.932;6.934;2023-05-07T06:55:33;1.83;;;1.70;;
12812;SDS011;6471;50.932;6.934;2023-05-07T06:58:00;2.67;;;1.70;;
12812;SDS011;6471;50.932;6.934;2023-05-07T07:00:26;1.87;;;1.50;;
12812;SDS011;6471;50.932;6.934;2023-05-07T07:02:53;1.83;;;1.47;;
12812;SDS011;6471;50.932;6.934;2023-05-07T07:05:19;1.77;;;1.50;;
12812;SDS011;6471;50.932;6.934;2023-05-07T07:07:45;1.67;;;1.43;;
12812;SDS011;6471;50.932;6.934;2023-05-07T07:10:21;1.67;;;1.57;;
12812;SDS011;6471;50.932;6.934;2023-05-07T07:12:48;3.30;;;1.80;;
12812;SDS011;6471;50.932;6.934;2023-05-07T07:15:14;1.90;;;1.80;;
12812;SDS011;6471;50.932;6.934;2023-05-07T07:17:41;2.00;;;1.80;;
12812;SDS011;6471;50.932;6.934;2023-05-07T07:20:07;2.00;;;1.70;;
12812;SDS011;6471;50.932;6.934;2023-05-07T07:22:33;2.13;;;1.93;;
12812;SDS011;6471;50.932;6.934;2023-05-07T07:24:59;2.00;;;1.70;;
12812;SDS011;6471;50.932;6.934;2023-05-07T07:27:25;1.97;;;1.67;;
12812;SDS011;6471;50.932;6.934;2023-05-07T07:29:51;1.60;;;1.50;;
12812;SDS011;6471;50.932;6.934;2023-05-07T07:32:17;2.70;;;1.50;;
12812;SDS011;6471;50.932;6.934;2023-05-07T07:34:43;1.87;;;1.50;;
12812;SDS011;6471;50.932;6.934;2023-05-07T07:37:09;2.00;;;1.63;;
12812;SDS011;6471;50.932;6.934;2023-05-07T07:39:36;1.57;;;1.47;;
12812;SDS011;6471;50.932;6.934;2023-05-07T07:42:05;1.60;;;1.50;;
12812;SDS011;6471;50.932;6.934;2023-05-07T07:44:31;2.93;;;1.50;;
12812;SDS011;6471;50.932;6.934;2023-05-07T07:46:57;2.47;;;1.50;;
12812;SDS011;6471;50.932;6.934;2023-05-07T07:49:23;1.97;;;1.70;;
12812;SDS011;6471;50.932;6.934;2023-05-07T07:51:49;2.03;;;1.83;;
12812;SDS011;6471;50.932;6.934;2023-05-07T07:54:16;1.97;;;1.73;;
12812;SDS011;6471;50.932;6.934;2023-05-07T07:56:42;1.90;;;1.70;;
12812;SDS011;6471;50.932;6.934;2023-05-07T07:59:08;1.80;;;1.60;;
12812;SDS011;6471;50.932;6.934;2023-05-07T08:01:34;2.10;;;1.60;;
12812;SDS011;6471;50.932;6.934;2023-05-07T08:04:00;1.90;;;1.60;;
12812;SDS011;6471;50.932;6.934;2023-05-07T08:06:28;1.50;;;1.40;;
12812;SDS011;6471;50.932;6.934;2023-05-07T08:08:54;1.77;;;1.60;;
12812;SDS011;6471;50.932;6.934;2023-05-07T08:11:20;1.97;;;1.60;;
12812;SDS011;6471;50.932;6.934;2023-05-07T08:13:46;2.17;;;1.40;;
12812;SDS011;6471;50.932;6.934;2023-05-07T08:16:13;1.70;;;1.40;;
12812;SDS011;6471;50.932;6.934;2023-05-07T08:18:39;1.77;;;1.40;;
12812;SDS011;6471;50.932;6.934;2023-05-07T08:21:05;1.60;;;1.40;;
12812;SDS011;6471;50.932;6.934;2023-05-07T08:23:34;1.97;;;1.40;;
12812;SDS011;6471;50.932;6.934;2023-05-07T08:26:00;1.87;;;1.67;;
12812;SDS011;6471;50.932;6.934;2023-05-07T08:28:26;1.93;;;1.63;;
12812;SDS011;6471;50.932;6.934;2023-05-07T08:30:52;1.57;;;1.40;;
12812;SDS011;6471;50.932;6.934;2023-05-07T08:33:18;2.47;;;1.70;;
12812;SDS011;6471;50.932;6.934;2023-05-07T08:35:44;2.07;;;1.70;;
12812;SDS011;6471;50.932;6.934;2023-05-07T08:56:35;3.00;;;1.70;;
12812;SDS011;6471;50.932;6.934;2023-05-07T08:59:10;2.20;;;1.60;;
12812;SDS011;6471;50.932;6.934;2023-05-07T09:01:36;2.53;;;1.70;;
12812;SDS011;6471;50.932;6.934;2023-05-07T09:04:12;2.40;;;1.70;;
12812;SDS011;6471;50.932;6.934;2023-05-07T09:06:39;1.97;;;1.60;;
12812;SDS011;6471;50.932;6.934;2023-05-07T09:09:06;2.40;;;1.87;;
12812;SDS011;6471;50.932;6.934;2023-05-07T09:11:33;2.10;;;1.90;;
12812;SDS011;6471;50.932;6.934;2023-05-07T09:13:59;2.53;;;2.00;;
12812;SDS011;6471;50.932;6.934;2023-05-07T09:16:29;2.43;;;1.80;;
12812;SDS011;6471;50.932;6.934;2023-05-07T09:18:56;2.70;;;2.00;;
12812;SDS011;6471;50.932;6.934;2023-05-07T09:21:25;3.23;;;1.77;;
12812;SDS011;6471;50.932;6.934;2023-05-07T09:23:55;4.57;;;1.97;;
12812;SDS011;6471;50.932;6.934;2023-05-07T09:26:21;1.90;;;1.67;;
12812;SDS011;6471;50.932;6.934;2023-05-07T09:28:50;2.57;;;1.90;;
12812;SDS011;6471;50.932;6.934;2023-05-07T09:31:32;2.20;;;1.87;;
12812;SDS011;6471;50.932;6.934;2023-05-07T09:34:00;3.50;;;1.93;;
12812;SDS011;6471;50.932;6.934;2023-05-07T09:36:27;5.20;;;1.90;;
12812;SDS011;6471;50.932;6.934;2023-05-07T09:38:53;2.33;;;1.80;;
12812;SDS011;6471;50.932;6.934;2023-05-07T09:41:21;2.63;;;2.00;;
12812;SDS011;6471;50.932;6.934;2023-05-07T09:43:47;3.47;;;2.10;;
12812;SDS011;6471;50.932;6.934;2023-05-07T09:46:19;2.80;;;2.00;;
12812;SDS011;6471;50.932;6.934;2023-05-07T09:48:49;1.90;;;1.80;;
12812;SDS011;6471;50.932;6.934;2023-05-07T09:57:39;4.20;;;2.00;;
12812;SDS011;6471;50.932;6.934;2023-05-07T10:00:06;2.53;;;2.10;;
12812;SDS011;6471;50.932;6.934;2023-05-07T10:14:26;2.63;;;1.93;;
12812;SDS011;6471;50.932;6.934;2023-05-07T10:17:05;3.03;;;1.87;;
12812;SDS011;6471;50.932;6.934;2023-05-07T10:19:37;2.17;;;1.90;;
12812;SDS011;6471;50.932;6.934;2023-05-07T10:22:04;2.20;;;1.80;;
12812;SDS011;6471;50.932;6.934;2023-05-07T10:24:36;2.60;;;1.73;;
12812;SDS011;6471;50.932;6.934;2023-05-07T10:27:21;2.37;;;1.70;;
12812;SDS011;6471;50.932;6.934;2023-05-07T10:39:28;2.00;;;1.73;;
12812;SDS011;6471;50.932;6.934;2023-05-07T11:21:43;2.30;;;1.70;;
12812;SDS011;6471;50.932;6.934;2023-05-07T11:50:52;1.85;;;1.65;;
12812;SDS011;6471;50.932;6.934;2023-05-07T13:23:59;1.93;;;1.33;;
12812;SDS011;6471;50.932;6.934;2023-05-07T13:26:30;1.93;;;1.60;;
12812;SDS011;6471;50.932;6.934;2023-05-07T13:28:59;1.80;;;1.40;;
12812;SDS011;6471;50.932;6.934;2023-05-07T13:31:26;1.60;;;1.50;;
12812;SDS011;6471;50.932;6.934;2023-05-07T13:33:52;1.53;;;1.43;;
12812;SDS011;6471;50.932;6.934;2023-05-07T13:36:20;1.33;;;1.20;;
12812;SDS011;6471;50.932;6.934;2023-05-07T13:44:33;2.33;;;2.00;;
12812;SDS011;6471;50.932;6.934;2023-05-07T13:46:59;1.90;;;1.70;;
12812;SDS011;6471;50.932;6.934;2023-05-07T13:49:26;2.10;;;1.90;;
12812;SDS011;6471;50.932;6.934;2023-05-07T13:52:07;4.10;;;2.30;;
12812;SDS011;6471;50.932;6.934;2023-05-07T13:54:39;2.23;;;1.77;;
12812;SDS011;6471;50.932;6.934;2023-05-07T13:57:14;2.40;;;1.93;;
12812;SDS011;6471;50.932;6.934;2023-05-07T13:59:41;2.37;;;1.70;;
12812;SDS011;6471;50.932;6.934;2023-05-07T14:02:07;1.53;;;1.43;;
12812;SDS011;6471;50.932;6.934;2023-05-07T14:04:37;1.63;;;1.53;;
12812;SDS011;6471;50.932;6.934;2023-05-07T14:10:07;2.17;;;1.67;;
12812;SDS011;6471;50.932;6.934;2023-05-07T14:12:40;2.00;;;1.53;;
12812;SDS011;6471;50.932;6.934;2023-05-07T14:15:37;2.33;;;1.70;;
12812;SDS011;6471;50.932;6.934;2023-05-07T14:26:42;1.83;;;1.60;;
12812;SDS011;6471;50.932;6.934;2023-05-07T14:35:02;2.57;;;2.20;;
12812;SDS011;6471;50.932;6.934;2023-05-07T14:37:55;1.93;;;1.70;;
12812;SDS011;6471;50.932;6.934;2023-05-07T14:40:40;1.90;;;1.70;;
12812;SDS011;6471;50.932;6.934;2023-05-07T15:06:21;3.53;;;2.57;;
12812;SDS011;6471;50.932;6.934;2023-05-07T15:09:09;4.20;;;2.80;;
12812;SDS011;6471;50.932;6.934;2023-05-07T19:17:41;2.53;;;2.33;;
12812;SDS011;6471;50.932;6.934;2023-05-07T19:30:04;3.07;;;2.40;;
12812;SDS011;6471;50.932;6.934;2023-05-07T19:39:24;3.53;;;2.87;;
12812;SDS011;6471;50.932;6.934;2023-05-07T19:42:14;4.83;;;2.90;;
12812;SDS011;6471;50.932;6.934;2023-05-07T19:44:59;3.60;;;2.87;;
12812;SDS011;6471;50.932;6.934;2023-05-07T19:47:28;3.90;;;2.87;;
12812;SDS011;6471;50.932;6.934;2023-05-07T19:49:54;3.77;;;3.20;;
12812;SDS011;6471;50.932;6.934;2023-05-07T19:52:41;6.90;;;3.37;;
12812;SDS011;6471;50.932;6.934;2023-05-07T19:55:14;3.30;;;3.00;;
12812;SDS011;6471;50.932;6.934;2023-05-07T19:57:55;3.60;;;3.17;;
12812;SDS011;6471;50.932;6.934;2023-05-07T20:00:22;4.90;;;3.20;;
12812;SDS011;6471;50.932;6.934;2023-05-07T20:03:09;3.60;;;3.20;;
12812;SDS011;6471;50.932;6.934;2023-05-07T20:05:44;3.30;;;3.00;;
12812;SDS011;6471;50.932;6.934;2023-05-07T20:08:27;3.97;;;3.20;;
12812;SDS011;6471;50.932;6.934;2023-05-07T20:11:06;5.47;;;4.23;;
12812;SDS011;6471;50.932;6.934;2023-05-07T20:13:35;4.27;;;3.60;;
12812;SDS011;6471;50.932;6.934;2023-05-07T20:26:47;3.57;;;3.13;;
12812;SDS011;6471;50.932;6.934;2023-05-07T20:29:13;4.00;;;2.90;;
12812;SDS011;6471;50.932;6.934;2023-05-07T20:31:39;3.87;;;3.17;;
12812;SDS011;6471;50.932;6.934;2023-05-07T20:34:06;3.30;;;3.00;;
12812;SDS011;6471;50.932;6.934;2023-05-07T20:36:32;4.33;;;3.13;;
12812;SDS011;6471;50.932;6.934;2023-05-07T20:38:58;3.30;;;2.80;;
12812;SDS011;6471;50.932;6.934;2023-05-07T20:41:24;3.63;;;2.80;;
12812;SDS011;6471;50.932;6.934;2023-05-07T20:43:51;2.77;;;2.57;;
12812;SDS011;6471;50.932;6.934;2023-05-07T20:46:21;4.30;;;3.57;;
12812;SDS011;6471;50.932;6.934;2023-05-07T20:48:48;3.40;;;3.10;;
12812;SDS011;6471;50.932;6.934;2023-05-07T20:51:15;3.77;;;2.97;;
12812;SDS011;6471;50.932;6.934;2023-05-07T20:56:41;3.70;;;2.90;;
12812;SDS011;6471;50.932;6.934;2023-05-07T20:59:07;2.70;;;2.50;;
12812;SDS011;6471;50.932;6.934;2023-05-07T21:01:33;2.83;;;2.60;;
12812;SDS011;6471;50.932;6.934;2023-05-07T21:04:00;2.80;;;2.60;;
12812;SDS011;6471;50.932;6.934;2023-05-07T21:06:26;3.00;;;2.70;;
12812;SDS011;6471;50.932;6.934;2023-05-07T21:08:52;2.70;;;2.50;;
12812;SDS011;6471;50.932;6.934;2023-05-07T21:11:19;2.40;;;2.20;;
12812;SDS011;6471;50.932;6.934;2023-05-07T21:13:45;3.83;;;2.77;;
12812;SDS011;6471;50.932;6.934;2023-05-07T21:16:12;2.83;;;2.63;;
12812;SDS011;6471;50.932;6.934;2023-05-07T21:18:43;2.90;;;2.60;;
12812;SDS011;6471;50.932;6.934;2023-05-07T21:21:09;3.10;;;2.80;;
12812;SDS011;6471;50.932;6.934;2023-05-07T21:26:30;3.70;;;3.00;;
12812;SDS011;6471;50.932;6.934;2023-05-07T21:28:57;3.87;;;3.30;;
12812;SDS011;6471;50.932;6.934;2023-05-07T21:31:23;3.40;;;3.10;;
12812;SDS011;6471;50.932;6.934;2023-05-07T21:33:51;3.10;;;2.73;;
12812;SDS011;6471;50.932;6.934;2023-05-07T21:36:18;3.20;;;2.90;;
12812;SDS011;6471;50.932;6.934;2023-05-07T21:38:44;3.03;;;2.40;;
12812;SDS011;6471;50.932;6.934;2023-05-07T21:41:10;3.20;;;2.60;;
12812;SDS011;6471;50.932;6.934;2023-05-07T21:43:39;3.27;;;2.73;;
12812;SDS011;6471;50.932;6.934;2023-05-07T21:46:08;2.77;;;2.40;;
12812;SDS011;6471;50.932;6.934;2023-05-07T21:48:34;2.67;;;2.43;;
12812;SDS011;6471;50.932;6.934;2023-05-07T21:51:01;3.67;;;2.90;;
12812;SDS011;6471;50.932;6.934;2023-05-07T21:53:30;3.13;;;2.27;;
12812;SDS011;6471;50.932;6.934;2023-05-07T21:55:56;2.40;;;2.20;;
12812;SDS011;6471;50.932;6.934;2023-05-07T21:58:28;3.10;;;2.50;;
12812;SDS011;6471;50.932;6.934;2023-05-07T22:00:57;2.43;;;2.10;;
12812;SDS011;6471;50.932;6.934;2023-05-07T22:03:24;2.40;;;2.10;;
12812;SDS011;6471;50.932;6.934;2023-05-07T22:05:50;2.47;;;2.13;;
12812;SDS011;6471;50.932;6.934;2023-05-07T22:08:16;2.40;;;2.20;;
12812;SDS011;6471;50.932;6.934;2023-05-07T22:10:42;2.63;;;2.20;;
12812;SDS011;6471;50.932;6.934;2023-05-07T22:13:08;2.10;;;1.90;;
12812;SDS011;6471;50.932;6.934;2023-05-07T22:15:34;2.23;;;2.03;;
12812;SDS011;6471;50.932;6.934;2023-05-07T22:18:01;2.20;;;2.00;;
12812;SDS011;6471;50.932;6.934;2023-05-07T22:20:27;3.13;;;2.83;;
12812;SDS011;6471;50.932;6.934;2023-05-07T22:22:54;3.47;;;3.10;;
12812;SDS011;6471;50.932;6.934;2023-05-07T22:25:21;4.27;;;3.47;;
12812;SDS011;6471;50.932;6.934;2023-05-07T22:27:48;5.43;;;4.27;;
12812;SDS011;6471;50.932;6.934;2023-05-07T22:30:14;4.83;;;4.33;;
12812;SDS011;6471;50.932;6.934;2023-05-07T22:32:40;5.30;;;4.80;;
12812;SDS011;6471;50.932;6.934;2023-05-07T22:35:07;6.23;;;4.70;;
12812;SDS011;6471;50.932;6.934;2023-05-07T22:37:33;5.17;;;4.00;;
12812;SDS011;6471;50.932;6.934;2023-05-07T22:40:02;4.67;;;4.10;;
12812;SDS011;6471;50.932;6.934;2023-05-07T22:42:29;4.57;;;3.97;;
12812;SDS011;6471;50.932;6.934;2023-05-07T22:44:55;4.73;;;4.20;;
12812;SDS011;6471;50.932;6.934;2023-05-07T22:47:21;5.00;;;4.03;;
12812;SDS011;6471;50.932;6.934;2023-05-07T22:49:48;4.37;;;3.97;;
12812;SDS011;6471;50.932;6.934;2023-05-07T22:52:14;4.10;;;3.70;;
12812;SDS011;6471;50.932;6.934;2023-05-07T22:54:40;4.03;;;3.50;;
12812;SDS011;6471;50.932;6.934;2023-05-07T22:57:08;4.17;;;3.40;;
12812;SDS011;6471;50.932;6.934;2023-05-07T22:59:35;3.53;;;3.23;;
12812;SDS011;6471;50.932;6.934;2023-05-07T23:02:01;4.00;;;3.43;;
12812;SDS011;6471;50.932;6.934;2023-05-07T23:04:32;3.40;;;3.10;;
12812;SDS011;6471;50.932;6.934;2023-05-07T23:06:58;3.30;;;3.00;;
12812;SDS011;6471;50.932;6.934;2023-05-07T23:09:24;3.07;;;2.77;;
12812;SDS011;6471;50.932;6.934;2023-05-07T23:11:50;2.97;;;2.60;;
12812;SDS011;6471;50.932;6.934;2023-05-07T23:14:16;2.80;;;2.60;;
12812;SDS011;6471;50.932;6.934;2023-05-07T23:16:43;2.87;;;2.60;;
12812;SDS011;6471;50.932;6.934;2023-05-07T23:19:09;2.63;;;2.43;;
12812;SDS011;6471;50.932;6.934;2023-05-07T23:21:35;3.13;;;2.83;;
12812;SDS011;6471;50.932;6.934;2023-05-07T23:24:01;2.90;;;2.60;;
12812;SDS011;6471;50.932;6.934;2023-05-07T23:26:28;3.07;;;2.70;;
12812;SDS011;6471;50.932;6.934;2023-05-07T23:28:54;2.90;;;2.43;;
12812;SDS011;6471;50.932;6.934;2023-05-07T23:31:20;2.80;;;2.40;;
12812;SDS011;6471;50.932;6.934;2023-05-07T23:33:46;2.83;;;2.60;;
12812;SDS011;6471;50.932;6.934;2023-05-07T23:36:12;2.70;;;2.50;;
12812;SDS011;6471;50.932;6.934;2023-05-07T23:38:38;2.80;;;2.50;;
12812;SDS011;6471;50.932;6.934;2023-05-07T23:41:04;2.63;;;2.40;;
12812;SDS011;6471;50.932;6.934;2023-05-07T23:43:30;2.67;;;2.40;;
12812;SDS011;6471;50.932;6.934;2023-05-07T23:45:56;2.70;;;2.50;;
12812;SDS011;6471;50.932;6.934;2023-05-07T23:48:25;2.93;;;2.63;;
12812;SDS011;6471;50.932;6.934;2023-05-07T23:50:54;2.70;;;2.50;;
12812;SDS011;6471;50.932;6.934;2023-05-07T23:53:21;2.80;;;2.60;;
12812;SDS011;6471;50.932;6.934;2023-05-07T23:55:47;3.43;;;2.60;;